Time;durP1;ratioP1;P1;durP2;ratioP2;P2;SDS_P1;SDS_P2;PMS_P1;PMS_P2;Temp;Humidity;BMP_temperature;BMP_pressure;BME280_temperature;BME280_humidity;BME280_pressure;Samples;Min_cycle;Max_cycle;Signal;HPM_P1;HPM_P2
2023/03/06 00:00:28;;;;;;;6.10;1.85;;;2.70;99.90;;;;;;5032001;28;20046;-64
2023/03/06 00:02:54;;;;;;;3.72;1.52;;;2.60;99.90;;;;;;5047413;28;20049;-64
2023/03/06 00:05:20;;;;;;;4.47;1.70;;;2.60;99.90;;;;;;5045779;28;20045;-62
2023/03/06 00:07:46;;;;;;;9.68;2.13;;;2.60;99.90;;;;;;5044328;28;20523;-65
2023/03/06 00:10:14;;;;;;;6.55;1.77;;;2.60;99.90;;;;;;5033493;28;20037;-63
2023/03/06 00:12:40;;;;;;;4.85;1.60;;;2.70;99.90;;;;;;5048531;28;20037;-62
2023/03/06 00:15:06;;;;;;;9.07;1.90;;;2.60;99.90;;;;;;5030955;28;20583;-63
2023/03/06 00:17:31;;;;;;;5.57;1.73;;;2.60;99.90;;;;;;5032385;28;20041;-65
2023/03/06 00:19:57;;;;;;;3.65;1.42;;;2.60;99.90;;;;;;5049009;28;20047;-63
2023/03/06 00:22:22;;;;;;;4.43;1.30;;;2.70;99.90;;;;;;5043675;28;20052;-66
2023/03/06 00:24:51;;;;;;;2.45;1.40;;;2.70;99.90;;;;;;5045187;28;20040;-64
2023/03/06 00:27:17;;;;;;;4.07;1.52;;;2.70;99.90;;;;;;5037362;28;20068;-63
2023/03/06 00:29:43;;;;;;;5.95;1.70;;;2.70;99.90;;;;;;5025753;28;20041;-65
2023/03/06 00:32:09;;;;;;;5.53;2.10;;;2.60;99.90;;;;;;5042940;28;20041;-64
2023/03/06 00:34:34;;;;;;;3.47;1.45;;;2.70;99.90;;;;;;5046900;28;20158;-63
2023/03/06 00:37:00;;;;;;;2.45;1.45;;;2.70;99.90;;;;;;5043426;28;20041;-63
2023/03/06 00:39:25;;;;;;;5.07;1.83;;;2.70;99.90;;;;;;5045597;28;20036;-64
2023/03/06 00:41:51;;;;;;;9.07;1.85;;;2.70;99.90;;;;;;5046583;28;20106;-64
2023/03/06 00:44:16;;;;;;;6.15;2.00;;;2.60;99.90;;;;;;5047738;28;20048;-63
2023/03/06 00:46:42;;;;;;;6.82;1.60;;;2.60;99.90;;;;;;5033177;28;20383;-64
2023/03/06 00:49:08;;;;;;;6.75;1.60;;;2.60;99.90;;;;;;5030728;28;20064;-63
2023/03/06 00:51:33;;;;;;;6.40;1.75;;;2.60;99.90;;;;;;5033573;28;20042;-63
2023/03/06 00:53:59;;;;;;;5.00;1.75;;;2.60;99.90;;;;;;5052399;28;20033;-64
2023/03/06 00:56:24;;;;;;;5.55;2.35;;;2.60;99.90;;;;;;5048154;28;20090;-63
2023/03/06 00:58:50;;;;;;;5.35;1.75;;;2.60;99.90;;;;;;5034874;28;20053;-63
2023/03/06 01:01:15;;;;;;;5.45;1.60;;;2.70;99.90;;;;;;5029944;28;20095;-63
2023/03/06 01:03:41;;;;;;;11.45;1.98;;;2.70;99.90;;;;;;5038201;28;20093;-63
2023/03/06 01:06:07;;;;;;;3.40;1.80;;;2.70;99.90;;;;;;5045519;28;20025;-63
2023/03/06 01:08:32;;;;;;;7.22;2.00;;;2.70;99.90;;;;;;5030395;28;20073;-63
2023/03/06 01:10:58;;;;;;;6.65;1.65;;;2.60;99.90;;;;;;5049835;28;20037;-63
2023/03/06 01:13:23;;;;;;;4.65;1.90;;;2.70;99.90;;;;;;5030396;28;20482;-63
2023/03/06 01:15:49;;;;;;;4.82;2.30;;;2.70;99.90;;;;;;5052436;28;20044;-63
2023/03/06 01:18:15;;;;;;;2.70;1.40;;;2.70;99.90;;;;;;5048025;28;20049;-63
2023/03/06 01:20:40;;;;;;;2.83;1.70;;;2.70;99.90;;;;;;5049907;28;20052;-65
2023/03/06 01:23:06;;;;;;;4.22;1.80;;;2.70;99.90;;;;;;5041746;28;20127;-63
2023/03/06 01:25:32;;;;;;;6.88;2.08;;;2.70;99.90;;;;;;5048224;28;20438;-63
2023/03/06 01:27:57;;;;;;;6.13;1.83;;;2.70;99.90;;;;;;5047674;28;20037;-63
2023/03/06 01:30:23;;;;;;;4.22;2.13;;;2.70;99.90;;;;;;5014372;28;20037;-64
2023/03/06 01:32:48;;;;;;;4.40;1.33;;;2.70;99.90;;;;;;5040996;28;20036;-65
2023/03/06 01:35:14;;;;;;;3.42;1.52;;;2.70;99.90;;;;;;5051422;28;20065;-63
2023/03/06 01:37:40;;;;;;;6.00;1.95;;;2.60;99.90;;;;;;5044239;28;20175;-62
2023/03/06 01:40:07;;;;;;;4.60;2.08;;;2.60;99.90;;;;;;5047092;28;20040;-62
2023/03/06 01:42:33;;;;;;;4.13;1.70;;;2.60;99.90;;;;;;5051782;28;20053;-64
2023/03/06 01:45:14;;;;;;;5.80;2.33;;;2.60;99.90;;;;;;5044151;28;20033;-63
2023/03/06 01:47:39;;;;;;;6.25;2.33;;;2.60;99.90;;;;;;5045594;28;20293;-65
2023/03/06 01:50:08;;;;;;;6.38;2.00;;;2.60;99.90;;;;;;5044025;28;20044;-64
2023/03/06 01:52:42;;;;;;;6.38;2.10;;;2.50;99.90;;;;;;5044212;28;20486;-64
2023/03/06 01:55:14;;;;;;;5.15;2.10;;;2.50;99.90;;;;;;5049510;28;20040;-65
2023/03/06 01:57:53;;;;;;;4.43;2.28;;;2.50;99.90;;;;;;5046116;28;20048;-65
2023/03/06 02:00:25;;;;;;;4.13;1.70;;;2.40;99.90;;;;;;5042873;28;20063;-65
2023/03/06 02:03:17;;;;;;;6.30;1.85;;;2.40;99.90;;;;;;5034341;28;20053;-65
2023/03/06 02:05:43;;;;;;;7.63;1.98;;;2.40;99.90;;;;;;5049572;28;20180;-64
2023/03/06 02:08:11;;;;;;;5.82;1.85;;;2.40;99.90;;;;;;5044014;28;20535;-64
2023/03/06 02:10:39;;;;;;;5.40;1.90;;;2.40;99.90;;;;;;5047278;28;20047;-66
2023/03/06 02:13:04;;;;;;;6.43;2.38;;;2.40;99.90;;;;;;5052280;28;20072;-64
2023/03/06 02:15:30;;;;;;;5.57;2.20;;;2.40;99.90;;;;;;5046765;28;20777;-63
2023/03/06 02:17:56;;;;;;;7.40;1.95;;;2.40;99.90;;;;;;5038504;28;20041;-63
2023/03/06 02:20:49;;;;;;;5.90;2.15;;;2.30;99.90;;;;;;5054107;28;20036;-64
2023/03/06 02:23:26;;;;;;;4.72;1.65;;;2.40;99.90;;;;;;5052264;28;20044;-65
2023/03/06 02:25:53;;;;;;;9.35;2.13;;;2.30;99.90;;;;;;5044994;28;20485;-65
2023/03/06 02:28:20;;;;;;;7.97;2.40;;;2.30;99.90;;;;;;5033143;28;20048;-64
2023/03/06 02:30:49;;;;;;;5.00;1.80;;;2.30;99.90;;;;;;5048077;28;20764;-66
2023/03/06 02:33:20;;;;;;;6.18;2.05;;;2.30;99.90;;;;;;5037644;28;20051;-65
2023/03/06 02:35:52;;;;;;;3.58;2.13;;;2.30;99.90;;;;;;5047904;28;20052;-64
2023/03/06 02:38:21;;;;;;;8.63;2.30;;;2.20;99.90;;;;;;5051584;28;20041;-64
2023/03/06 02:40:49;;;;;;;5.60;2.13;;;2.20;99.90;;;;;;5027880;28;20044;-64
2023/03/06 02:43:21;;;;;;;4.97;2.28;;;2.30;99.90;;;;;;5040733;28;20091;-68
2023/03/06 02:45:49;;;;;;;5.63;2.55;;;2.20;99.90;;;;;;5038613;28;20045;-65
2023/03/06 02:48:16;;;;;;;5.97;2.40;;;2.20;99.90;;;;;;5046840;28;20036;-66
2023/03/06 02:50:43;;;;;;;4.85;2.15;;;2.10;99.90;;;;;;5041625;28;20047;-66
2023/03/06 02:53:10;;;;;;;5.60;2.30;;;2.10;99.90;;;;;;5043608;28;20041;-67
2023/03/06 02:55:36;;;;;;;4.82;2.03;;;2.10;99.90;;;;;;5031730;28;20137;-66
2023/03/06 02:58:03;;;;;;;3.90;2.03;;;2.10;99.90;;;;;;5050336;28;20449;-66
2023/03/06 03:00:30;;;;;;;4.60;1.90;;;2.10;99.90;;;;;;5028930;28;20382;-66
2023/03/06 03:02:55;;;;;;;4.35;2.22;;;2.10;99.90;;;;;;5016531;28;20040;-66
2023/03/06 03:05:21;;;;;;;5.53;1.90;;;2.10;99.90;;;;;;5043077;28;20053;-69
2023/03/06 03:07:47;;;;;;;4.88;1.83;;;2.00;99.90;;;;;;5042118;28;20037;-66
2023/03/06 03:10:13;;;;;;;2.75;1.65;;;1.90;99.90;;;;;;5044637;28;20380;-66
2023/03/06 03:12:39;;;;;;;7.70;1.88;;;1.90;99.90;;;;;;5049528;28;20381;-65
2023/03/06 03:15:05;;;;;;;2.97;1.52;;;1.80;99.90;;;;;;5047828;28;20029;-65
2023/03/06 03:17:33;;;;;;;2.35;1.90;;;1.60;99.90;;;;;;5037229;28;20055;-66
2023/03/06 03:19:59;;;;;;;2.97;1.65;;;1.50;99.90;;;;;;5040894;28;20040;-66
2023/03/06 03:22:24;;;;;;;5.45;1.80;;;1.50;99.90;;;;;;5047348;28;20047;-66
2023/03/06 03:24:50;;;;;;;1.98;1.60;;;1.40;99.90;;;;;;5047067;28;20481;-67
2023/03/06 03:27:16;;;;;;;3.15;2.05;;;1.30;99.90;;;;;;5047734;28;20521;-67
2023/03/06 03:29:41;;;;;;;2.47;1.90;;;1.20;99.90;;;;;;5045682;28;20172;-67
2023/03/06 03:32:07;;;;;;;2.10;1.88;;;1.20;99.90;;;;;;5044496;28;20048;-68
2023/03/06 03:34:33;;;;;;;2.83;2.00;;;1.10;99.90;;;;;;5048729;28;20041;-69
2023/03/06 03:36:59;;;;;;;2.92;2.00;;;1.00;99.90;;;;;;5047989;28;20087;-69
2023/03/06 03:39:24;;;;;;;2.92;2.03;;;1.00;99.90;;;;;;5044698;28;20033;-69
2023/03/06 03:41:51;;;;;;;3.13;2.10;;;1.00;99.90;;;;;;5048227;28;20037;-69
2023/03/06 03:44:16;;;;;;;4.18;2.17;;;1.00;99.90;;;;;;5049002;28;20045;-69
2023/03/06 03:46:42;;;;;;;3.28;2.30;;;1.00;99.90;;;;;;5019110;28;20028;-69
2023/03/06 03:49:08;;;;;;;3.38;2.72;;;1.00;99.90;;;;;;5046750;28;20052;-69
2023/03/06 03:51:34;;;;;;;3.13;2.35;;;0.90;99.90;;;;;;5016997;28;20452;-69
2023/03/06 03:53:59;;;;;;;2.80;2.28;;;0.80;99.90;;;;;;5030543;28;20051;-69
2023/03/06 03:56:25;;;;;;;2.40;2.20;;;0.80;99.90;;;;;;5046419;28;20481;-69
2023/03/06 03:58:51;;;;;;;2.15;1.92;;;0.70;99.90;;;;;;5046944;28;20419;-69
2023/03/06 04:01:17;;;;;;;3.13;2.20;;;0.70;99.90;;;;;;5047394;28;20103;-69
2023/03/06 04:03:42;;;;;;;3.13;2.03;;;0.70;99.90;;;;;;5040142;28;20036;-69
2023/03/06 04:06:08;;;;;;;3.55;2.30;;;0.70;99.90;;;;;;5045943;28;20045;-69
2023/03/06 04:08:34;;;;;;;6.50;2.40;;;0.70;99.90;;;;;;5043265;28;20103;-69
2023/03/06 04:11:01;;;;;;;3.17;2.15;;;0.60;99.90;;;;;;5016880;28;20470;-70
2023/03/06 04:13:27;;;;;;;3.33;2.05;;;0.70;99.90;;;;;;5038611;28;20099;-70
2023/03/06 04:15:54;;;;;;;3.72;1.88;;;0.60;99.90;;;;;;5045779;28;20037;-70
2023/03/06 04:18:21;;;;;;;3.50;1.90;;;0.60;99.90;;;;;;5046175;28;20095;-70
2023/03/06 04:20:48;;;;;;;4.35;2.03;;;0.50;99.90;;;;;;5047619;28;20440;-70
2023/03/06 04:23:14;;;;;;;5.72;2.63;;;0.50;99.90;;;;;;5047448;28;20036;-69
2023/03/06 04:25:40;;;;;;;2.78;1.90;;;0.60;99.90;;;;;;5048654;28;20055;-70
2023/03/06 04:28:06;;;;;;;3.30;1.70;;;0.60;99.90;;;;;;5032891;28;20033;-70
2023/03/06 04:30:32;;;;;;;2.92;1.98;;;0.60;99.90;;;;;;5029106;28;20068;-70
2023/03/06 04:32:58;;;;;;;3.60;2.15;;;0.60;99.90;;;;;;5041929;28;20037;-70
2023/03/06 04:35:24;;;;;;;3.88;1.98;;;0.60;99.90;;;;;;5042566;28;20036;-70
2023/03/06 04:37:49;;;;;;;3.17;2.03;;;0.60;99.90;;;;;;5049558;28;20650;-69
2023/03/06 04:40:21;;;;;;;3.65;1.98;;;0.60;99.90;;;;;;5049805;28;20039;-70
2023/03/06 04:42:47;;;;;;;3.55;2.05;;;0.70;99.90;;;;;;5040586;28;20523;-69
2023/03/06 04:45:14;;;;;;;2.65;1.95;;;0.70;99.90;;;;;;5019569;28;20068;-69
2023/03/06 04:47:40;;;;;;;3.75;2.25;;;0.70;99.90;;;;;;5036631;28;20059;-69
2023/03/06 04:50:07;;;;;;;4.05;2.03;;;0.70;99.90;;;;;;5047196;28;20045;-69
2023/03/06 04:52:33;;;;;;;2.63;1.80;;;0.70;99.90;;;;;;5051267;28;20040;-69
2023/03/06 04:54:58;;;;;;;3.30;1.95;;;0.60;99.90;;;;;;5045884;28;20491;-70
2023/03/06 04:57:24;;;;;;;3.00;1.70;;;0.60;99.90;;;;;;5049568;28;20036;-70
2023/03/06 04:59:50;;;;;;;2.63;1.73;;;0.60;99.90;;;;;;5044887;28;20065;-70
2023/03/06 05:02:16;;;;;;;1.98;1.42;;;0.70;99.90;;;;;;5033657;28;20045;-69
2023/03/06 05:04:42;;;;;;;3.00;1.60;;;0.70;99.90;;;;;;5050036;28;20055;-69
2023/03/06 05:07:08;;;;;;;3.08;1.67;;;0.70;99.90;;;;;;5042910;28;20028;-69
2023/03/06 05:09:34;;;;;;;3.53;1.52;;;0.70;99.90;;;;;;5044335;28;20069;-69
2023/03/06 05:12:00;;;;;;;2.88;1.42;;;0.70;99.90;;;;;;5041065;28;20495;-69
2023/03/06 05:14:29;;;;;;;4.32;1.65;;;0.70;99.90;;;;;;5040221;28;20032;-69
2023/03/06 05:16:55;;;;;;;2.15;1.45;;;0.70;99.90;;;;;;5040905;28;20041;-69
2023/03/06 05:19:20;;;;;;;2.65;1.65;;;0.70;99.90;;;;;;5047754;28;20546;-68
2023/03/06 05:21:46;;;;;;;3.72;1.50;;;0.70;99.90;;;;;;5045439;28;20037;-68
2023/03/06 05:24:11;;;;;;;3.45;1.88;;;0.70;99.90;;;;;;5030020;28;20032;-69
2023/03/06 05:26:37;;;;;;;1.92;1.23;;;0.70;99.90;;;;;;5050606;28;20044;-69
2023/03/06 05:29:03;;;;;;;3.08;1.70;;;0.60;99.90;;;;;;5045716;28;20061;-68
2023/03/06 05:31:28;;;;;;;2.25;1.55;;;0.60;99.90;;;;;;5044202;28;20488;-69
2023/03/06 05:33:54;;;;;;;3.38;1.98;;;0.50;99.90;;;;;;5040905;28;20124;-68
2023/03/06 05:36:19;;;;;;;2.50;1.52;;;0.60;99.90;;;;;;5042810;28;20075;-69
2023/03/06 05:38:45;;;;;;;2.65;1.52;;;0.60;99.90;;;;;;5025694;28;20041;-69
2023/03/06 05:41:14;;;;;;;3.15;1.77;;;0.60;99.90;;;;;;5045628;28;20049;-69
2023/03/06 05:43:39;;;;;;;2.88;1.67;;;0.60;99.90;;;;;;5044262;28;20041;-69
2023/03/06 05:46:05;;;;;;;4.35;1.98;;;0.60;99.90;;;;;;5048021;28;20040;-69
2023/03/06 05:48:32;;;;;;;4.03;1.75;;;0.60;99.90;;;;;;5043854;28;20174;-69
2023/03/06 05:50:59;;;;;;;3.03;1.77;;;0.60;99.90;;;;;;5045752;28;20037;-69
2023/03/06 05:53:25;;;;;;;4.32;1.88;;;0.60;99.90;;;;;;5042765;28;20040;-68
2023/03/06 05:55:58;;;;;;;3.55;1.73;;;0.60;99.90;;;;;;5029539;28;20036;-68
2023/03/06 05:58:24;;;;;;;3.10;2.03;;;0.60;99.90;;;;;;5044895;28;20040;-69
2023/03/06 06:00:51;;;;;;;5.03;2.10;;;0.70;99.90;;;;;;5038530;28;20053;-68
2023/03/06 06:03:17;;;;;;;5.53;2.20;;;0.70;99.90;;;;;;5042632;28;20119;-68
2023/03/06 06:05:42;;;;;;;4.45;2.58;;;0.70;99.90;;;;;;5049169;28;20420;-69
2023/03/06 06:08:08;;;;;;;7.22;3.20;;;0.70;99.90;;;;;;5046660;28;20041;-68
2023/03/06 06:10:33;;;;;;;10.23;4.55;;;0.80;99.90;;;;;;5049696;28;20049;-68
2023/03/06 06:12:59;;;;;;;12.63;4.53;;;0.70;99.90;;;;;;5048866;28;20068;-68
2023/03/06 06:15:27;;;;;;;8.65;3.92;;;0.70;99.90;;;;;;5049137;28;20045;-68
2023/03/06 06:17:53;;;;;;;6.50;3.45;;;0.80;99.90;;;;;;5038562;28;20045;-68
2023/03/06 06:20:19;;;;;;;7.45;3.83;;;0.70;99.90;;;;;;5053029;28;20080;-68
2023/03/06 06:22:45;;;;;;;5.22;2.60;;;0.70;99.90;;;;;;5051699;28;20079;-69
2023/03/06 06:25:10;;;;;;;5.68;2.17;;;0.70;99.90;;;;;;5041690;28;20036;-68
2023/03/06 06:27:36;;;;;;;3.47;1.98;;;0.70;99.90;;;;;;5048713;28;20045;-68
2023/03/06 06:30:02;;;;;;;3.75;1.95;;;0.60;99.90;;;;;;5043077;28;20038;-68
2023/03/06 06:32:28;;;;;;;5.75;1.90;;;0.50;99.90;;;;;;5049997;28;20427;-68
2023/03/06 06:34:53;;;;;;;4.97;2.05;;;0.50;99.90;;;;;;5052816;28;20039;-68
2023/03/06 06:37:19;;;;;;;3.83;1.90;;;0.50;99.90;;;;;;5048883;28;20033;-68
2023/03/06 06:39:44;;;;;;;3.72;1.88;;;0.40;99.90;;;;;;5043867;28;20065;-68
2023/03/06 06:42:10;;;;;;;4.20;2.10;;;0.30;99.90;;;;;;5041476;28;20055;-68
2023/03/06 06:44:36;;;;;;;4.45;1.90;;;0.40;99.90;;;;;;5042722;28;20092;-68
2023/03/06 06:47:03;;;;;;;3.40;1.73;;;0.30;99.90;;;;;;5041144;28;20040;-68
2023/03/06 06:49:29;;;;;;;3.35;1.80;;;0.30;99.90;;;;;;5043170;28;20115;-68
2023/03/06 06:51:54;;;;;;;3.88;1.95;;;0.30;99.90;;;;;;5042449;28;20180;-68
2023/03/06 06:54:21;;;;;;;3.60;1.80;;;0.30;99.90;;;;;;5045182;28;20130;-68
2023/03/06 06:56:47;;;;;;;3.35;1.70;;;0.50;99.90;;;;;;5046520;28;20037;-68
2023/03/06 06:59:12;;;;;;;4.22;2.28;;;0.40;99.90;;;;;;5041767;28;20068;-68
2023/03/06 07:01:38;;;;;;;4.53;2.50;;;0.50;99.90;;;;;;5043319;28;20376;-68
2023/03/06 07:04:03;;;;;;;8.77;3.95;;;0.60;99.90;;;;;;5037011;28;20050;-68
2023/03/06 07:06:29;;;;;;;7.20;3.13;;;0.60;99.90;;;;;;5037895;28;20042;-68
2023/03/06 07:08:55;;;;;;;7.80;3.20;;;0.70;99.90;;;;;;5043242;28;20051;-68
2023/03/06 07:11:21;;;;;;;5.18;2.83;;;0.80;99.90;;;;;;5042105;28;20045;-68
2023/03/06 07:13:47;;;;;;;6.35;3.33;;;0.80;99.90;;;;;;5038129;28;20036;-68
2023/03/06 07:16:16;;;;;;;6.85;3.42;;;0.70;99.90;;;;;;5033165;28;20033;-68
2023/03/06 07:18:41;;;;;;;4.55;2.10;;;0.80;99.90;;;;;;5041113;28;20041;-68
2023/03/06 07:21:07;;;;;;;5.78;2.63;;;0.80;99.90;;;;;;5032383;28;20043;-67
2023/03/06 07:23:33;;;;;;;6.32;2.50;;;0.70;99.90;;;;;;5036075;28;20049;-68
2023/03/06 07:25:59;;;;;;;3.45;2.25;;;0.70;99.90;;;;;;5044097;28;20045;-68
2023/03/06 07:28:24;;;;;;;6.28;2.30;;;0.90;99.90;;;;;;5037729;28;20044;-68
2023/03/06 07:30:50;;;;;;;5.05;2.50;;;1.10;99.90;;;;;;5034241;28;20056;-68
2023/03/06 07:33:15;;;;;;;4.53;2.15;;;1.20;99.90;;;;;;5025306;28;20041;-69
2023/03/06 07:35:42;;;;;;;3.40;2.03;;;1.30;99.90;;;;;;5043343;28;20039;-69
2023/03/06 07:38:08;;;;;;;3.33;2.20;;;1.30;99.90;;;;;;5045479;28;20044;-69
2023/03/06 07:40:35;;;;;;;3.60;1.90;;;1.30;99.90;;;;;;5040133;28;20128;-70
2023/03/06 07:43:00;;;;;;;2.58;1.90;;;1.30;99.90;;;;;;5038673;28;20489;-70
2023/03/06 07:45:26;;;;;;;3.85;2.13;;;1.20;99.90;;;;;;5033071;28;20045;-70
2023/03/06 07:47:52;;;;;;;3.47;2.03;;;1.20;99.90;;;;;;5032465;28;20040;-70
2023/03/06 07:50:19;;;;;;;3.20;2.40;;;1.20;99.90;;;;;;5039040;28;20034;-71
2023/03/06 07:52:44;;;;;;;4.55;3.35;;;1.20;99.90;;;;;;5037828;28;20044;-70
2023/03/06 07:55:10;;;;;;;4.65;2.80;;;1.30;99.90;;;;;;5034216;28;20041;-70
2023/03/06 07:57:37;;;;;;;7.65;2.83;;;1.40;99.90;;;;;;5035471;28;20108;-71
2023/03/06 08:00:06;;;;;;;5.28;2.60;;;1.40;99.90;;;;;;5032805;28;20057;-70
2023/03/06 08:02:32;;;;;;;3.47;2.30;;;1.50;99.90;;;;;;5040884;28;20045;-70
2023/03/06 08:04:57;;;;;;;4.35;2.15;;;1.50;99.90;;;;;;5034288;28;20040;-69
2023/03/06 08:07:23;;;;;;;3.78;2.22;;;1.50;99.90;;;;;;5029696;28;20040;-69
2023/03/06 08:09:49;;;;;;;3.95;2.53;;;1.70;99.90;;;;;;5031996;28;20037;-68
2023/03/06 08:12:15;;;;;;;5.45;2.25;;;1.70;99.90;;;;;;5032011;28;20091;-68
2023/03/06 08:14:41;;;;;;;3.65;1.95;;;1.80;99.90;;;;;;5031391;28;20435;-68
2023/03/06 08:17:07;;;;;;;5.60;2.40;;;1.80;99.90;;;;;;5027382;28;20107;-68
2023/03/06 08:19:33;;;;;;;4.38;1.95;;;1.80;99.90;;;;;;5033199;28;20671;-68
2023/03/06 08:21:58;;;;;;;3.08;1.83;;;1.90;99.90;;;;;;5035218;28;20052;-68
2023/03/06 08:24:24;;;;;;;3.97;2.20;;;1.90;99.90;;;;;;5045860;28;20116;-68
2023/03/06 08:26:49;;;;;;;12.10;2.40;;;2.00;99.90;;;;;;5049424;28;20047;-68
2023/03/06 08:29:15;;;;;;;5.90;2.40;;;2.10;99.90;;;;;;5050402;28;20045;-68
2023/03/06 08:31:43;;;;;;;5.25;2.15;;;2.20;99.90;;;;;;5027743;28;20512;-67
2023/03/06 08:34:11;;;;;;;5.38;2.20;;;2.30;99.90;;;;;;5045009;28;20083;-67
2023/03/06 08:36:37;;;;;;;4.10;2.13;;;2.40;99.90;;;;;;5047271;28;20144;-67
2023/03/06 08:39:03;;;;;;;6.82;3.35;;;2.70;99.90;;;;;;5033797;28;20049;-67
2023/03/06 08:41:29;;;;;;;4.50;2.20;;;2.90;99.90;;;;;;5031714;28;20042;-66
2023/03/06 08:43:55;;;;;;;3.28;2.03;;;3.00;99.90;;;;;;5030480;28;22624;-65
2023/03/06 08:46:22;;;;;;;5.07;2.00;;;3.20;99.90;;;;;;5047782;28;20098;-65
2023/03/06 08:48:48;;;;;;;3.63;1.83;;;3.30;99.90;;;;;;5037925;28;20041;-65
2023/03/06 08:51:14;;;;;;;4.35;1.67;;;3.30;99.90;;;;;;5036781;28;20060;-65
2023/03/06 08:53:39;;;;;;;4.10;1.85;;;3.30;99.90;;;;;;5033878;28;20665;-65
2023/03/06 08:56:05;;;;;;;3.05;1.70;;;3.40;99.90;;;;;;5036867;28;20069;-67
2023/03/06 08:58:31;;;;;;;4.72;2.55;;;3.30;99.90;;;;;;5037861;28;20049;-67
2023/03/06 09:00:57;;;;;;;3.67;1.95;;;3.40;99.90;;;;;;5030187;28;20055;-66
2023/03/06 09:03:24;;;;;;;3.67;1.80;;;3.50;99.90;;;;;;5042325;28;20125;-67
2023/03/06 09:05:49;;;;;;;4.05;1.77;;;3.50;99.90;;;;;;5031133;28;20068;-66
2023/03/06 09:08:15;;;;;;;6.60;2.45;;;3.50;99.90;;;;;;5030237;28;20076;-66
2023/03/06 09:10:45;;;;;;;2.42;1.40;;;3.60;99.90;;;;;;5041154;28;20499;-67
2023/03/06 09:13:11;;;;;;;;;;;3.60;99.90;;;;;;5032448;28;20078;-66
2023/03/06 09:15:36;;;;;;;2.55;1.30;;;3.50;99.90;;;;;;5029283;28;19920;-67
2023/03/06 09:18:02;;;;;;;4.30;1.65;;;3.60;99.90;;;;;;5035585;28;20048;-67
2023/03/06 09:20:28;;;;;;;2.58;1.40;;;3.50;99.90;;;;;;5040741;28;20041;-67
2023/03/06 09:22:53;;;;;;;2.50;1.33;;;3.60;99.90;;;;;;5036217;28;20068;-67
2023/03/06 09:25:22;;;;;;;2.35;1.45;;;3.80;99.90;;;;;;5029888;28;20041;-67
2023/03/06 09:27:48;;;;;;;3.97;1.30;;;3.70;99.90;;;;;;5034583;28;20041;-67
2023/03/06 09:30:14;;;;;;;4.32;2.28;;;3.80;99.90;;;;;;5047779;28;20037;-67
2023/03/06 09:32:40;;;;;;;1.55;1.20;;;3.90;99.90;;;;;;5047471;28;20072;-67
2023/03/06 09:35:06;;;;;;;3.38;1.30;;;4.00;99.90;;;;;;5034456;28;20039;-68
2023/03/06 09:37:32;;;;;;;3.72;0.95;;;4.00;99.90;;;;;;5033783;28;20065;-69
2023/03/06 09:39:57;;;;;;;3.97;1.10;;;4.10;99.90;;;;;;5039677;28;20155;-68
2023/03/06 09:42:23;;;;;;;4.88;1.15;;;4.30;99.90;;;;;;5049608;28;20045;-67
2023/03/06 09:44:58;;;;;;;1.88;1.02;;;4.10;99.90;;;;;;5051198;28;20119;-67
2023/03/06 09:47:50;;;;;;;2.05;1.15;;;4.30;99.90;;;;;;5047983;28;20091;-68
2023/03/06 09:50:19;;;;;;;2.28;1.30;;;4.50;99.90;;;;;;5052436;28;20033;-67
2023/03/06 09:52:50;;;;;;;4.50;1.10;;;4.40;99.90;;;;;;5052112;28;20504;-68
2023/03/06 09:55:20;;;;;;;1.42;0.80;;;4.40;99.90;;;;;;5028191;28;20045;-67
2023/03/06 09:58:08;;;;;;;4.05;1.10;;;4.40;99.90;;;;;;5047942;28;20158;-67
2023/03/06 10:01:00;;;;;;;1.20;0.98;;;4.40;99.90;;;;;;5051730;28;20098;-67
2023/03/06 10:03:44;;;;;;;3.15;0.90;;;4.60;99.90;;;;;;5047960;28;20057;-67
2023/03/06 10:06:45;;;;;;;5.13;1.17;;;4.60;99.90;;;;;;5043899;28;20045;-67
2023/03/06 10:09:42;;;;;;;1.40;1.17;;;4.60;99.90;;;;;;5009868;28;20139;-67
2023/03/06 10:12:34;;;;;;;4.38;0.80;;;4.50;99.90;;;;;;5041270;28;20045;-67
2023/03/06 10:15:14;;;;;;;2.03;0.65;;;4.50;99.90;;;;;;5044705;28;20053;-66
2023/03/06 10:17:41;;;;;;;3.67;0.90;;;4.40;99.90;;;;;;5046367;28;20055;-67
2023/03/06 10:20:27;;;;;;;2.78;0.93;;;4.50;99.90;;;;;;5039841;28;20049;-67
2023/03/06 10:23:14;;;;;;;1.73;0.80;;;4.60;99.90;;;;;;5045622;28;20434;-67
2023/03/06 10:26:11;;;;;;;3.17;0.80;;;4.60;99.90;;;;;;5040692;28;20512;-65
2023/03/06 10:29:02;;;;;;;3.50;0.70;;;4.40;99.90;;;;;;5034374;28;20038;-67
2023/03/06 10:31:27;;;;;;;;;;;4.20;99.90;;;;;;5031053;28;20366;-67
2023/03/06 10:34:14;;;;;;;1.70;0.50;;;4.10;99.90;;;;;;5033565;28;19928;-66
2023/03/06 10:36:39;;;;;;;2.05;0.55;;;4.10;99.90;;;;;;5032856;28;20049;-66
2023/03/06 10:39:15;;;;;;;4.53;0.52;;;4.10;99.90;;;;;;5032486;28;20056;-67
2023/03/06 10:41:40;;;;;;;2.53;0.52;;;4.20;99.90;;;;;;5037645;28;20128;-66
2023/03/06 10:44:07;;;;;;;1.40;0.50;;;4.40;99.90;;;;;;5036531;28;20144;-66
2023/03/06 10:46:42;;;;;;;2.00;0.57;;;4.50;99.90;;;;;;5041063;28;20045;-65
2023/03/06 10:49:13;;;;;;;3.13;0.55;;;4.30;99.90;;;;;;5014936;28;20440;-65
2023/03/06 10:51:53;;;;;;;11.50;1.25;;;4.30;99.90;;;;;;5049126;28;20110;-65
2023/03/06 10:54:19;;;;;;;5.35;0.82;;;4.30;99.90;;;;;;5032892;28;20447;-64
2023/03/06 10:56:46;;;;;;;1.45;0.50;;;4.30;99.90;;;;;;5033681;28;20041;-67
2023/03/06 10:59:21;;;;;;;1.38;0.50;;;4.30;99.90;;;;;;5052311;28;20060;-65
2023/03/06 11:01:53;;;;;;;2.50;0.50;;;4.40;99.90;;;;;;5035396;28;20123;-66
2023/03/06 11:04:30;;;;;;;3.15;0.70;;;4.50;99.90;;;;;;5033243;28;20107;-66
2023/03/06 11:07:18;;;;;;;1.75;0.50;;;4.60;99.90;;;;;;5049017;28;20376;-65
2023/03/06 11:10:00;;;;;;;3.10;0.80;;;5.00;99.90;;;;;;5053399;28;20047;-64
2023/03/06 11:12:33;;;;;;;2.58;1.08;;;5.10;99.90;;;;;;5050644;28;20037;-65
2023/03/06 11:15:11;;;;;;;2.15;0.95;;;5.00;99.90;;;;;;5039120;28;20046;-64
2023/03/06 11:17:57;;;;;;;2.83;0.35;;;5.20;99.90;;;;;;5052230;28;20441;-66
2023/03/06 11:20:31;;;;;;;1.67;0.55;;;5.50;99.90;;;;;;5023320;28;20056;-64
2023/03/06 11:23:07;;;;;;;2.45;0.45;;;5.70;99.90;;;;;;5037137;28;20041;-64
2023/03/06 11:25:39;;;;;;;2.10;0.30;;;5.70;99.90;;;;;;5046203;28;20049;-65
2023/03/06 11:28:40;;;;;;;1.00;0.40;;;5.80;99.90;;;;;;5053608;28;20487;-64
2023/03/06 11:31:15;;;;;;;0.90;0.40;;;5.70;99.90;;;;;;5045665;28;20041;-64
2023/03/06 11:34:09;;;;;;;0.65;0.45;;;5.80;99.90;;;;;;5041417;28;20069;-65
2023/03/06 11:36:46;;;;;;;2.25;0.52;;;6.20;99.90;;;;;;5049498;28;20440;-66
2023/03/06 11:39:20;;;;;;;1.13;0.43;;;6.40;99.90;;;;;;5044725;28;20048;-65
2023/03/06 11:41:53;;;;;;;2.42;0.43;;;6.30;98.60;;;;;;5033610;28;20124;-66
2023/03/06 11:44:23;;;;;;;2.65;0.50;;;6.20;91.50;;;;;;5036134;28;20032;-65
2023/03/06 11:46:57;;;;;;;1.90;0.47;;;6.30;99.90;;;;;;5029148;28;20041;-65
2023/03/06 11:49:40;;;;;;;3.22;0.52;;;6.40;99.90;;;;;;5050777;28;20084;-65
2023/03/06 11:52:13;;;;;;;0.98;0.45;;;6.40;95.20;;;;;;5048549;28;20033;-65
2023/03/06 11:54:38;;;;;;;1.52;0.38;;;6.40;99.90;;;;;;5040996;28;20049;-65
2023/03/06 11:57:13;;;;;;;2.03;0.40;;;6.40;99.90;;;;;;5034332;28;20037;-64
2023/03/06 11:59:57;;;;;;;1.05;0.30;;;6.40;99.90;;;;;;5046366;28;20068;-64
2023/03/06 12:02:42;;;;;;;2.05;0.43;;;6.50;99.90;;;;;;5048541;28;20276;-64
2023/03/06 12:05:21;;;;;;;1.20;0.50;;;6.70;99.90;;;;;;5033368;28;20484;-65
2023/03/06 12:07:58;;;;;;;2.95;0.65;;;6.80;99.90;;;;;;5034878;28;20377;-64
2023/03/06 12:10:34;;;;;;;1.73;0.70;;;6.70;99.90;;;;;;5040387;28;20038;-64
2023/03/06 12:13:26;;;;;;;1.83;0.50;;;6.80;99.90;;;;;;5033868;28;20041;-65
2023/03/06 12:16:11;;;;;;;3.40;0.60;;;6.80;98.90;;;;;;5033829;28;20037;-65
2023/03/06 12:19:00;;;;;;;1.30;0.45;;;6.80;99.90;;;;;;5038523;28;20041;-64
2023/03/06 12:21:40;;;;;;;3.63;0.70;;;6.90;96.80;;;;;;5043568;28;20045;-65
2023/03/06 12:24:20;;;;;;;;;;;6.90;99.70;;;;;;5045518;28;20044;-64
2023/03/06 12:26:45;;;;;;;1.02;0.30;;;6.90;91.80;;;;;;5046167;28;19924;-66
2023/03/06 12:29:19;;;;;;;2.08;0.43;;;6.70;97.20;;;;;;5036720;28;20045;-65
2023/03/06 12:32:12;;;;;;;1.10;0.40;;;6.70;92.70;;;;;;5048774;28;20540;-65
2023/03/06 12:35:03;;;;;;;2.55;0.50;;;6.60;94.40;;;;;;5032982;28;20041;-64
2023/03/06 12:37:43;;;;;;;3.03;0.43;;;6.70;86.20;;;;;;5035931;28;20045;-64
2023/03/06 12:40:30;;;;;;;1.63;0.60;;;6.70;88.90;;;;;;5032433;28;20037;-64
2023/03/06 12:43:04;;;;;;;2.63;0.50;;;6.60;85.80;;;;;;5021120;28;20048;-65
2023/03/06 12:45:35;;;;;;;1.20;0.50;;;6.50;92.50;;;;;;5010235;28;22163;-66
2023/03/06 12:48:02;;;;;;;0.68;0.40;;;6.30;89.50;;;;;;5020985;28;20397;-65
2023/03/06 12:50:30;;;;;;;1.38;0.60;;;6.30;91.80;;;;;;5028766;28;20083;-65
2023/03/06 12:53:06;;;;;;;2.78;0.60;;;6.20;92.70;;;;;;5041730;28;20579;-64
2023/03/06 12:55:39;;;;;;;0.88;0.50;;;6.20;91.90;;;;;;5046804;28;20029;-65
2023/03/06 12:58:27;;;;;;;2.25;0.60;;;6.10;86.70;;;;;;5043876;28;20106;-64
2023/03/06 13:01:14;;;;;;;2.33;0.60;;;6.10;93.90;;;;;;5036923;28;20485;-64
2023/03/06 13:04:04;;;;;;;3.22;0.60;;;6.20;94.20;;;;;;5038697;28;20055;-65
2023/03/06 13:06:54;;;;;;;3.58;0.68;;;6.10;89.30;;;;;;5030199;28;20041;-63
2023/03/06 13:09:35;;;;;;;;;;;6.10;90.30;;;;;;5038520;28;20119;-64